Terminal Aerodrome Forecast
Issued by NWS

Home | Current Version | Previous Version | Graphics & Text | Print | Product List | Glossary On
Versions: 1 2 3 4 5 6 7 8 9 10 11 12 13 14 15 16 17 18 19
000
FTUS43 KMPX 132300
TAFAXN
TAF
KAXN 132335Z 1400/1424 35020G28KT P6SM SCT030 BKN250
     FM141200 35012G20KT P6SM SCT250
     FM141900 34016G24KT P6SM FEW040=

USA.gov is the U.S. government's official web portal to all federal, state and local government web resources and services.